Time;durP1;ratioP1;P1;durP2;ratioP2;P2;SDS_P1;SDS_P2;PMS_P1;PMS_P2;Temp;Humidity;BMP_temperature;BMP_pressure;BME280_temperature;BME280_humidity;BME280_pressure;Samples;Min_cycle;Max_cycle;Signal;HPM_P1;HPM_P2
2023/05/14 00:03:13;;;;;;;2.17;0.30;;;6.20;99.90;;;;;;25965705;22;20000;-50
2023/05/14 00:13:14;;;;;;;0.38;0.20;;;6.20;99.90;;;;;;25965208;22;20003;-46
2023/05/14 00:23:16;;;;;;;0.95;0.10;;;6.10;99.90;;;;;;25965129;22;20007;-49
2023/05/14 00:33:17;;;;;;;0.30;0.10;;;6.00;99.90;;;;;;25964717;22;20508;-51
2023/05/14 00:43:20;;;;;;;0.40;0.20;;;6.00;99.90;;;;;;25937965;22;20015;-49
2023/05/14 00:53:22;;;;;;;0.50;0.20;;;5.80;99.90;;;;;;26006153;22;20015;-59
2023/05/14 01:03:23;;;;;;;2.35;0.30;;;5.60;99.90;;;;;;25968477;22;20007;-50
2023/05/14 01:14:05;;;;;;;0.60;0.30;;;5.70;99.90;;;;;;25972540;22;20512;-47
2023/05/14 01:24:07;;;;;;;0.35;0.20;;;5.80;99.90;;;;;;25446940;23;20069;-58
2023/05/14 01:34:11;;;;;;;1.55;0.50;;;5.70;99.90;;;;;;25459889;23;20006;-48
2023/05/14 01:44:13;;;;;;;1.65;0.25;;;5.90;99.90;;;;;;25479407;23;20025;-51
2023/05/14 01:54:15;;;;;;;0.22;0.20;;;6.20;99.90;;;;;;25750785;22;20003;-48
2023/05/14 02:04:16;;;;;;;1.50;0.30;;;6.20;99.90;;;;;;25970466;22;20007;-48
2023/05/14 02:14:18;;;;;;;0.35;0.20;;;6.20;99.90;;;;;;25942519;22;20050;-48
2023/05/14 02:24:20;;;;;;;1.25;0.35;;;6.20;99.90;;;;;;25969399;22;20061;-49
2023/05/14 02:34:22;;;;;;;1.10;0.40;;;6.10;99.90;;;;;;25969442;22;20000;-59
2023/05/14 02:44:25;;;;;;;1.27;0.52;;;5.80;99.90;;;;;;25941792;22;20517;-48
2023/05/14 02:54:26;;;;;;;0.85;0.40;;;5.60;99.90;;;;;;25968661;22;20003;-50
2023/05/14 03:04:28;;;;;;;0.70;0.32;;;5.50;99.90;;;;;;25968234;22;20003;-50
2023/05/14 03:14:30;;;;;;;1.15;0.40;;;5.40;99.90;;;;;;25967686;22;20081;-46
2023/05/14 03:24:31;;;;;;;1.90;0.28;;;5.50;99.90;;;;;;25966957;22;20026;-58
2023/05/14 03:34:33;;;;;;;0.90;0.25;;;5.50;99.90;;;;;;25967035;22;20073;-59
2023/05/14 03:44:34;;;;;;;1.08;0.30;;;5.60;99.90;;;;;;25938231;22;20016;-50
2023/05/14 03:54:37;;;;;;;2.83;0.32;;;5.70;99.90;;;;;;25938978;22;20067;-50
2023/05/14 04:04:39;;;;;;;0.80;0.28;;;5.80;99.90;;;;;;25938683;22;20003;-46
2023/05/14 04:14:41;;;;;;;1.83;0.40;;;5.90;99.90;;;;;;25938365;22;20008;-47
2023/05/14 04:24:43;;;;;;;1.58;0.28;;;5.90;99.90;;;;;;25965129;22;20050;-50
2023/05/14 04:34:46;;;;;;;0.52;0.20;;;5.80;99.90;;;;;;25937398;22;20004;-48
2023/05/14 04:44:47;;;;;;;0.95;0.30;;;5.90;99.90;;;;;;25966231;22;20015;-50
2023/05/14 04:54:49;;;;;;;1.75;0.20;;;6.10;99.90;;;;;;25964077;22;20008;-50
2023/05/14 05:04:51;;;;;;;0.77;0.30;;;6.40;99.90;;;;;;25963873;22;20008;-59
2023/05/14 05:14:52;;;;;;;0.52;0.25;;;6.70;99.90;;;;;;25964044;22;20007;-48
2023/05/14 05:24:54;;;;;;;0.32;0.20;;;6.90;99.90;;;;;;25963715;22;20004;-50
2023/05/14 05:34:56;;;;;;;0.65;0.20;;;7.30;99.90;;;;;;25936547;22;20069;-49
2023/05/14 05:44:57;;;;;;;0.20;0.13;;;7.60;99.90;;;;;;25964133;22;20065;-48
2023/05/14 05:54:59;;;;;;;0.28;0.10;;;8.10;99.90;;;;;;25971235;22;20004;-50
2023/05/14 06:05:01;;;;;;;0.17;0.10;;;8.20;99.90;;;;;;25970052;22;20007;-49
2023/05/14 06:15:03;;;;;;;2.10;0.20;;;8.20;99.90;;;;;;25969494;22;20145;-48
2023/05/14 06:25:06;;;;;;;0.40;0.20;;;8.40;99.90;;;;;;25969668;22;20011;-46
2023/05/14 06:35:08;;;;;;;4.50;0.28;;;8.40;99.90;;;;;;25968503;22;20077;-49
2023/05/14 06:45:10;;;;;;;0.45;0.20;;;8.50;99.90;;;;;;25968981;22;20016;-59
2023/05/14 06:55:12;;;;;;;1.65;0.30;;;8.60;99.90;;;;;;25966941;22;20011;-47
2023/05/14 07:05:13;;;;;;;1.92;0.30;;;8.70;99.90;;;;;;25967821;22;20153;-50
2023/05/14 07:15:15;;;;;;;3.25;0.80;;;8.80;99.90;;;;;;25968089;22;20003;-46
2023/05/14 07:25:17;;;;;;;1.95;0.30;;;9.00;99.90;;;;;;25967256;22;20008;-49
2023/05/14 07:35:19;;;;;;;0.68;0.30;;;8.90;99.90;;;;;;25938977;22;20007;-60
2023/05/14 07:45:20;;;;;;;1.67;0.43;;;8.60;99.90;;;;;;25966736;22;20012;-50
2023/05/14 07:55:22;;;;;;;0.70;0.20;;;8.50;99.90;;;;;;25966412;22;20003;-61
2023/05/14 08:05:24;;;;;;;0.98;0.25;;;9.10;99.90;;;;;;25965830;22;20059;-61
2023/05/14 08:15:25;;;;;;;0.82;0.20;;;10.00;99.90;;;;;;25965599;22;20061;-49
2023/05/14 08:25:28;;;;;;;0.20;0.10;;;10.90;99.90;;;;;;25937388;22;20007;-50
2023/05/14 08:35:30;;;;;;;1.90;1.05;;;11.40;99.90;;;;;;25966050;22;20034;-61
2023/05/14 08:45:34;;;;;;;1.48;1.00;;;11.80;99.90;;;;;;25993923;22;20046;-50
2023/05/14 08:55:36;;;;;;;1.90;1.15;;;12.00;99.90;;;;;;25965062;22;20003;-50
2023/05/14 09:05:38;;;;;;;1.67;1.50;;;11.30;99.90;;;;;;25964298;22;20012;-60
2023/05/14 09:15:40;;;;;;;1.73;1.45;;;10.40;99.90;;;;;;25965149;22;20003;-59
2023/05/14 09:25:42;;;;;;;2.33;1.67;;;9.70;99.90;;;;;;25970475;22;20010;-51
2023/05/14 09:35:45;;;;;;;1.70;1.50;;;9.50;99.90;;;;;;25972721;22;20034;-50
2023/05/14 09:45:47;;;;;;;1.45;1.02;;;9.70;99.90;;;;;;25973350;22;20008;-53
2023/05/14 09:55:49;;;;;;;2.45;0.80;;;9.90;99.90;;;;;;25972101;22;20004;-52
2023/05/14 10:05:52;;;;;;;2.40;2.20;;;10.20;99.90;;;;;;25970630;22;20004;-52
2023/05/14 10:16:09;;;;;;;2.13;1.90;;;10.60;99.90;;;;;;25971255;22;20030;-49
2023/05/14 10:26:12;;;;;;;2.90;2.60;;;10.20;99.90;;;;;;26013062;22;20010;-49
2023/05/14 10:36:13;;;;;;;17.60;3.70;;;9.60;99.90;;;;;;25969672;22;20323;-59
2023/05/14 10:46:15;;;;;;;116.25;7.93;;;8.90;99.90;;;;;;25943022;22;20011;-59
2023/05/14 10:56:18;;;;;;;5.00;4.40;;;8.50;99.90;;;;;;25969673;22;20442;-50
2023/05/14 11:06:20;;;;;;;5.28;3.42;;;8.40;99.90;;;;;;25969219;22;20033;-50
2023/05/14 11:16:23;;;;;;;4.72;4.22;;;8.90;99.90;;;;;;25969061;22;20010;-59
2023/05/14 11:26:25;;;;;;;4.90;3.83;;;9.30;99.90;;;;;;25968409;22;20004;-47
2023/05/14 11:36:26;;;;;;;7.25;4.63;;;9.50;99.90;;;;;;25941017;22;20011;-53
2023/05/14 11:46:29;;;;;;;130.02;8.60;;;9.30;99.90;;;;;;25968143;22;20038;-48
2023/05/14 11:56:31;;;;;;;88.43;7.55;;;9.10;99.90;;;;;;25967476;22;20004;-59
2023/05/14 12:06:32;;;;;;;163.48;9.07;;;9.00;99.90;;;;;;25913508;22;20301;-51
2023/05/14 12:16:34;;;;;;;94.55;8.93;;;9.10;99.90;;;;;;25966318;22;20046;-51
2023/05/14 12:26:37;;;;;;;157.95;10.20;;;9.10;99.90;;;;;;25965701;22;20065;-59
2023/05/14 12:36:39;;;;;;;962.67;38.15;;;9.00;99.90;;;;;;25965728;22;20373;-50
2023/05/14 12:46:40;;;;;;;781.95;30.88;;;8.90;99.90;;;;;;25938175;22;20011;-58
2023/05/14 12:56:42;;;;;;;880.75;34.85;;;8.50;99.90;;;;;;25965056;22;19999;-48
2023/05/14 13:06:46;;;;;;;225.25;14.18;;;8.20;99.90;;;;;;25966256;22;20026;-58
2023/05/14 13:16:47;;;;;;;770.03;29.83;;;8.00;99.90;;;;;;25964139;22;20015;-58
2023/05/14 13:26:49;;;;;;;32.63;6.78;;;8.00;99.90;;;;;;25964689;22;20049;-58
2023/05/14 13:36:51;;;;;;;150.52;11.40;;;7.90;99.90;;;;;;25963958;22;20058;-60
2023/05/14 13:46:53;;;;;;;66.70;10.40;;;7.90;99.90;;;;;;25963943;22;20008;-60
2023/05/14 13:56:54;;;;;;;8.85;7.32;;;7.90;99.90;;;;;;25963240;22;20443;-45
2023/05/14 14:06:56;;;;;;;156.27;8.85;;;8.30;99.90;;;;;;25964432;22;20007;-49
2023/05/14 14:16:58;;;;;;;5.47;4.65;;;8.50;99.90;;;;;;25971493;22;20007;-48
2023/05/14 14:27:01;;;;;;;69.93;5.85;;;8.70;99.90;;;;;;25971172;22;20000;-60
2023/05/14 14:37:03;;;;;;;3.40;3.10;;;8.80;99.90;;;;;;25970745;22;20057;-51
2023/05/14 14:47:05;;;;;;;3.28;2.50;;;9.00;99.90;;;;;;25969905;22;20004;-60
2023/05/14 14:57:06;;;;;;;3.58;3.05;;;9.30;99.90;;;;;;25969973;22;20435;-50
2023/05/14 15:07:08;;;;;;;444.48;14.85;;;9.50;99.90;;;;;;25969233;22;20091;-52
2023/05/14 15:17:10;;;;;;;3.20;2.58;;;9.40;99.90;;;;;;25968857;22;20386;-49
2023/05/14 15:27:11;;;;;;;3.55;2.60;;;9.10;99.90;;;;;;25968586;22;20003;-47
2023/05/14 15:37:13;;;;;;;2.15;1.90;;;9.20;99.90;;;;;;25968206;22;20004;-49
2023/05/14 15:47:15;;;;;;;2.50;2.30;;;9.20;99.90;;;;;;25967726;22;20014;-51
2023/05/14 15:57:16;;;;;;;2.15;1.95;;;9.30;99.90;;;;;;25967440;22;20003;-47
2023/05/14 16:07:18;;;;;;;2.08;1.88;;;8.90;99.90;;;;;;25966069;22;20073;-48
2023/05/14 16:17:20;;;;;;;2.30;1.85;;;8.50;99.90;;;;;;25939537;22;20003;-60
2023/05/14 16:27:22;;;;;;;2.28;2.08;;;8.30;99.90;;;;;;25966316;22;20008;-61
2023/05/14 16:37:24;;;;;;;3.67;2.53;;;8.10;99.90;;;;;;25937465;22;20004;-60
2023/05/14 16:47:26;;;;;;;2.00;1.80;;;8.00;99.90;;;;;;25965589;22;20015;-60
2023/05/14 16:57:27;;;;;;;2.13;1.70;;;8.10;99.90;;;;;;25965850;22;20015;-59
2023/05/14 17:07:30;;;;;;;1.83;1.40;;;8.10;99.90;;;;;;25965443;22;20012;-50
2023/05/14 17:17:32;;;;;;;1.50;1.17;;;8.40;99.90;;;;;;25964931;22;20004;-49
2023/05/14 17:27:35;;;;;;;0.90;0.80;;;8.40;99.90;;;;;;25964675;22;20061;-59
2023/05/14 17:37:36;;;;;;;1.67;1.55;;;8.10;99.90;;;;;;25963862;22;20008;-49
2023/05/14 17:47:38;;;;;;;2.58;1.30;;;7.70;99.90;;;;;;25970609;22;20111;-62
2023/05/14 17:57:40;;;;;;;1.70;1.45;;;7.30;99.90;;;;;;25972379;22;20003;-47
2023/05/14 18:07:42;;;;;;;1.33;0.20;;;7.00;99.90;;;;;;25971843;22;20515;-47
2023/05/14 18:17:44;;;;;;;0.50;0.30;;;6.80;99.90;;;;;;25971908;22;20463;-61
2023/05/14 18:27:46;;;;;;;0.93;0.40;;;6.60;99.90;;;;;;25970299;22;20007;-62
2023/05/14 18:37:47;;;;;;;0.90;0.30;;;6.50;99.90;;;;;;25967642;22;20011;-56
2023/05/14 18:47:50;;;;;;;2.08;0.55;;;6.50;99.90;;;;;;25970100;22;20011;-60
2023/05/14 18:57:52;;;;;;;1.27;0.40;;;6.40;99.90;;;;;;25969795;22;20331;-50
2023/05/14 19:07:54;;;;;;;0.10;0.10;;;6.40;99.90;;;;;;25968505;22;20374;-44
2023/05/14 19:17:55;;;;;;;0.70;0.30;;;6.30;99.90;;;;;;25969417;22;20443;-62
2023/05/14 19:28:00;;;;;;;0.40;0.20;;;6.30;99.90;;;;;;25968703;22;20000;-46
2023/05/14 19:38:02;;;;;;;0.55;0.17;;;6.10;99.90;;;;;;25966913;22;20011;-44
2023/05/14 19:48:07;;;;;;;1.33;0.38;;;5.90;99.90;;;;;;25967493;22;20012;-53
2023/05/14 19:58:09;;;;;;;1.25;0.45;;;5.80;99.90;;;;;;25967354;22;20411;-59
2023/05/14 20:08:11;;;;;;;0.30;0.20;;;5.80;99.90;;;;;;25940000;22;20019;-49
2023/05/14 20:18:13;;;;;;;2.15;0.20;;;6.00;99.90;;;;;;25966916;22;20007;-45
2023/05/14 20:28:15;;;;;;;0.50;0.30;;;6.00;99.90;;;;;;25966307;22;20015;-48
2023/05/14 20:38:17;;;;;;;8.52;7.22;;;6.10;99.90;;;;;;25939927;22;20057;-49
2023/05/14 20:48:20;;;;;;;0.10;0.10;;;6.20;99.90;;;;;;25965516;22;20061;-60
2023/05/14 20:58:23;;;;;;;2.13;0.30;;;6.20;99.90;;;;;;25965356;22;20004;-46
2023/05/14 21:08:24;;;;;;;3.60;0.45;;;6.20;99.90;;;;;;25965549;22;20073;-47
2023/05/14 21:18:29;;;;;;;0.63;0.35;;;6.10;99.90;;;;;;25967646;22;20307;-47
2023/05/14 21:28:31;;;;;;;0.30;0.20;;;6.00;99.90;;;;;;25973059;22;20003;-45
2023/05/14 21:38:33;;;;;;;0.35;0.32;;;6.00;99.90;;;;;;25973059;22;20003;-44
2023/05/14 21:48:34;;;;;;;0.40;0.30;;;6.00;99.90;;;;;;25945571;22;20012;-48
2023/05/14 21:58:36;;;;;;;0.28;0.20;;;6.00;99.90;;;;;;25972512;22;20003;-45
2023/05/14 22:08:38;;;;;;;0.28;0.10;;;6.00;99.90;;;;;;25972119;22;20395;-44
2023/05/14 22:18:39;;;;;;;0.77;0.20;;;5.90;99.90;;;;;;25971836;22;20427;-50
2023/05/14 22:28:41;;;;;;;0.30;0.20;;;5.90;99.90;;;;;;25971271;22;20402;-47
2023/05/14 22:38:43;;;;;;;0.20;0.20;;;5.80;99.90;;;;;;25970659;22;20465;-46
2023/05/14 22:48:47;;;;;;;0.32;0.22;;;5.50;99.90;;;;;;25970239;22;20008;-46
2023/05/14 22:58:49;;;;;;;1.30;0.20;;;5.10;99.90;;;;;;25970028;22;20267;-46
2023/05/14 23:08:50;;;;;;;3.45;0.40;;;4.80;99.90;;;;;;25969572;22;20008;-44
2023/05/14 23:18:52;;;;;;;5.75;0.50;;;4.60;99.90;;;;;;25969234;22;20007;-47
2023/05/14 23:28:54;;;;;;;0.80;0.40;;;4.40;99.90;;;;;;25941402;22;20000;-48
2023/05/14 23:38:59;;;;;;;2.47;0.40;;;4.30;99.90;;;;;;25967966;22;20000;-45
2023/05/14 23:49:00;;;;;;;1.50;0.30;;;4.30;99.90;;;;;;25968261;22;20061;-48
2023/05/14 23:59:02;;;;;;;3.08;0.45;;;4.30;99.90;;;;;;25967614;22;20148;-47
